Strona główna
METAR-TAF:

Lotnisko :

Łódź, Polska

Port lotniczy Łódź-Lublinek

Szerokość geograficzna: 51-43-19N, Długość geograficzna: 019-23-53E, wysokość: 184 m

Aktualna obserwacja pogody

Raport powstał 22 minut temu, godzina 10:00 UTC
Wiatr 7 kt od wschodnio-południowy wschód, zmienny między wschód i południowo-południowy wschód
Temperatura 14°C
Wilgotność 55%
Ciśnienie 1027 hPa
Widzialność 10 km lub więcej
Brak chmur poniżej 1500 m i brak chmur cumulonimbus

METAR: EPLL 271000Z 12007KT 090V160 CAVOK 14/05 Q1027

czas: 12:22 (10:22 UTC)

Prognoza

Raport powstał 4 godziny i 52 minut temu, godzina 05:30 UTC
Prognoza ważna od 27 godzina 06 UTC do 28 godzina 06 UTC
Wiatr 5 kt od wschodnio-południowy wschód
Widzialność 10 km lub więcej
Brak chmur poniżej 1500 m i brak chmur cumulonimbus
Stopniowe zmiany
od 27 godzina 15 UTC do 27 godzina 18 UTC
Wiatr 2 kt z kierunków zmiennych

TAF: EPLL 270530Z 2706/2806 11005KT CAVOK BECMG 2715/2718 VRB02KT

METAR-TAF

Obserwacja i prognoza pogody dla ponad 4000 lotnisk (raport METAR i TAF).

Dostępne stacje oznaczono żółtymi i czerwonymi punktami na mapie.

Najedź kursorem aby zobaczyć nazwę stacji.

Kliknij aby zobaczyć obserwacje i prognozy pogody.

Aby zmienić mapę: kliknij na zielony przycisk z czarnym krzyżykiem, aby powiększyć; na zielony przycisk z myślnikiem, aby pomniejszyć; na zielone strzałki, aby przejść do map sąsiednich.


METAR-TAF: